Terminal Aerodrome Forecast
Issued by NWS

Home | Current Version | Previous Version | Text Only | Print | Product List | Glossary On
Versions: 1 2 3 4 5 6 7 8 9 10 11 12 13 14 15 16 17 18 19 20 21 22 23 24
000
FTUS41 KGYX 242332
TAFLEB
TAF
KLEB 242332Z 2500/2524 VRB02KT P6SM SCT018 BKN035
      TEMPO 2500/2503 BKN018
     FM250600 00000KT 2SM BR SCT008
     FM250800 00000KT 1/2SM FG VV008
     FM251300 29007KT P6SM SCT250=

USA.gov is the U.S. government's official web portal to all federal, state and local government web resources and services.